VOBG/BLR METAR and TAF weather

Enter ICAO airport designator
Station Type Date Time Source
VOBG METAR 2021/09/24 06:30 UTC NOAA

VOBG 240630Z 29006KT 6000 BKN012 SCT018 26/20 Q1013 NOSIG


Station Type Date Time Source
VOBG Decoded METAR 2021/09/24 06:30 UTC NOAA

Bangalore / Hindustan, India (VOBG) 12-57N 077-40E
Sep 24, 2021 - 02:30 AM EDT / 2021.09.24 0630 UTC
Wind: from the WNW (290 degrees) at 7 MPH (6 KT):0
Visibility: 3 mile(s):0
Sky conditions: mostly cloudy
Temperature: 78 F (26 C)
Dew Point: 68 F (20 C)
Relative Humidity: 69%
Pressure (altimeter): 29.91 in. Hg (1013 hPa)
ob: VOBG 240630Z 29006KT 6000 BKN012 SCT018 26/20 Q1013 NOSIG
cycle: 6

Station Type Date Time Source
VOBG TAF 2021/05/01 09:00 UTC NOAA

TAF VOBG 010800Z 0109/0118 09010KT 6000 SCT015
TEMPO 0112/0118 5000 TSRA RA SCT015 SCT020 FEW025CB BKN080

Example: see airport list